createdAt,value
2023-03-27T00:01:39.353Z,5.90
2023-03-27T00:04:09.179Z,5.90
2023-03-27T00:06:37.681Z,6.00
2023-03-27T00:09:08.375Z,5.90
2023-03-27T00:11:37.033Z,5.80
2023-03-27T00:14:05.712Z,5.80
2023-03-27T00:16:34.114Z,5.80
2023-03-27T00:19:04.032Z,5.80
2023-03-27T00:21:32.474Z,5.80
2023-03-27T00:24:00.625Z,5.70
2023-03-27T00:26:30.619Z,5.70
2023-03-27T00:28:58.998Z,5.70
2023-03-27T00:31:27.474Z,5.70
2023-03-27T00:33:55.973Z,5.60
2023-03-27T00:36:26.077Z,5.70
2023-03-27T00:38:54.384Z,5.70
2023-03-27T00:41:23.438Z,5.70
2023-03-27T00:43:56.461Z,5.60
2023-03-27T00:46:39.642Z,5.60
2023-03-27T00:49:11.390Z,5.60
2023-03-27T00:51:43.600Z,5.50
2023-03-27T00:54:13.592Z,5.40
2023-03-27T00:56:42.114Z,5.30
2023-03-27T00:59:15.908Z,5.30
2023-03-27T01:01:46.187Z,5.20
2023-03-27T01:04:14.575Z,5.10
2023-03-27T01:06:44.779Z,5.00
2023-03-27T01:09:20.440Z,5.00
2023-03-27T01:12:00.794Z,5.10
2023-03-27T01:14:38.198Z,5.00
2023-03-27T01:17:21.148Z,5.00
2023-03-27T01:20:20.319Z,4.90
2023-03-27T01:23:09.517Z,4.90
2023-03-27T01:26:04.440Z,4.80
2023-03-27T01:28:41.428Z,4.80
2023-03-27T01:31:24.222Z,4.80
2023-03-27T01:34:11.274Z,4.80
2023-03-27T01:37:08.912Z,4.90
2023-03-27T01:39:47.205Z,4.60
2023-03-27T01:42:21.438Z,4.60
2023-03-27T01:44:55.453Z,4.50
2023-03-27T01:47:35.302Z,4.50
2023-03-27T01:50:10.226Z,4.50
2023-03-27T01:52:42.328Z,4.60
2023-03-27T01:55:19.304Z,4.60
2023-03-27T01:57:52.204Z,4.50
2023-03-27T02:00:23.796Z,4.50
2023-03-27T02:03:11.291Z,4.40
2023-03-27T02:05:43.796Z,4.40
2023-03-27T02:08:18.397Z,4.40
2023-03-27T02:10:52.381Z,4.30
2023-03-27T02:13:27.410Z,4.40
2023-03-27T02:15:59.453Z,4.40
2023-03-27T02:18:31.796Z,4.40
2023-03-27T02:21:02.375Z,4.40
2023-03-27T02:23:32.923Z,4.30
2023-03-27T02:26:02.783Z,4.30
2023-03-27T02:29:04.209Z,4.40
2023-03-27T02:31:44.727Z,4.40
2023-03-27T02:34:50.405Z,4.40
2023-03-27T02:37:32.820Z,4.30
2023-03-27T02:40:40.032Z,4.30
2023-03-27T02:43:34.245Z,4.20
2023-03-27T02:46:10.285Z,4.10
2023-03-27T02:48:42.255Z,4.10
2023-03-27T02:51:15.707Z,4.20
2023-03-27T02:53:49.809Z,4.80
2023-03-27T02:56:21.211Z,4.10
2023-03-27T02:58:57.308Z,4.00
2023-03-27T03:01:53.055Z,4.00
2023-03-27T03:04:35.794Z,3.90
2023-03-27T03:07:23.086Z,3.90
2023-03-27T03:09:51.644Z,4.00
2023-03-27T03:12:20.053Z,4.00
2023-03-27T03:14:49.762Z,3.90
2023-03-27T03:17:18.342Z,3.80
2023-03-27T03:19:46.813Z,4.00
2023-03-27T03:22:15.090Z,3.80
2023-03-27T03:24:43.812Z,3.90
2023-03-27T03:27:15.809Z,3.80
2023-03-27T03:29:57.838Z,3.80
2023-03-27T03:32:30.514Z,4.00
2023-03-27T03:35:01.767Z,4.20
2023-03-27T03:37:38.449Z,4.20
2023-03-27T03:40:11.975Z,4.20
2023-03-27T03:42:48.043Z,4.20
2023-03-27T03:45:19.809Z,4.20
2023-03-27T03:47:48.683Z,4.20
2023-03-27T03:50:17.765Z,4.30
2023-03-27T03:52:47.151Z,4.30
2023-03-27T03:55:16.291Z,4.40
2023-03-27T03:57:47.581Z,4.40
2023-03-27T04:00:25.204Z,4.50
2023-03-27T04:02:56.928Z,4.30
2023-03-27T04:05:26.088Z,4.40
2023-03-27T04:07:59.636Z,4.40
2023-03-27T04:10:28.774Z,4.50
2023-03-27T04:12:58.544Z,4.50
2023-03-27T04:15:38.805Z,4.50
2023-03-27T04:18:30.431Z,4.50
2023-03-27T04:20:59.674Z,4.60
2023-03-27T04:23:30.341Z,4.60
2023-03-27T04:26:01.083Z,4.50
2023-03-27T04:28:44.688Z,4.70
2023-03-27T04:31:34.635Z,4.70
2023-03-27T04:34:22.224Z,4.80
2023-03-27T04:37:07.790Z,4.80
2023-03-27T04:39:42.874Z,4.90
2023-03-27T04:42:11.599Z,4.90
2023-03-27T04:44:40.362Z,4.90
2023-03-27T04:47:10.459Z,5.00
2023-03-27T04:49:43.787Z,5.10
2023-03-27T04:52:20.727Z,5.00
2023-03-27T04:54:49.549Z,4.90
2023-03-27T04:57:19.325Z,5.10
2023-03-27T04:59:50.684Z,5.10
2023-03-27T05:02:58.228Z,5.00
2023-03-27T05:05:35.924Z,5.00
2023-03-27T05:08:07.076Z,5.60
2023-03-27T05:10:35.346Z,4.90
2023-03-27T05:13:03.574Z,5.10
2023-03-27T05:15:33.638Z,5.30
2023-03-27T05:18:07.511Z,5.20
2023-03-27T05:20:37.294Z,5.10
2023-03-27T05:23:10.891Z,5.10
2023-03-27T05:25:40.059Z,5.20
2023-03-27T05:28:13.675Z,5.20
2023-03-27T05:30:43.305Z,5.30
2023-03-27T05:33:18.385Z,5.40
2023-03-27T05:35:47.269Z,5.50
2023-03-27T05:38:16.961Z,5.70
2023-03-27T05:40:57.098Z,5.80
2023-03-27T05:43:26.433Z,5.90
2023-03-27T05:45:54.586Z,5.90
2023-03-27T05:48:24.284Z,6.10
2023-03-27T05:50:52.432Z,6.30
2023-03-27T05:53:27.937Z,6.40
2023-03-27T05:56:23.593Z,6.30
2023-03-27T05:58:58.260Z,6.10
2023-03-27T06:01:28.033Z,6.20
2023-03-27T06:04:00.252Z,6.20
2023-03-27T06:06:34.368Z,6.30
2023-03-27T06:09:02.989Z,6.30
2023-03-27T06:11:32.796Z,6.20
2023-03-27T06:14:01.355Z,6.30
2023-03-27T06:17:03.528Z,6.40
2023-03-27T06:19:51.612Z,6.30
2023-03-27T06:22:20.085Z,6.30
2023-03-27T06:24:50.051Z,6.50
2023-03-27T06:27:20.777Z,6.60
2023-03-27T06:29:49.149Z,6.60
2023-03-27T06:32:17.823Z,6.40
2023-03-27T06:34:53.176Z,6.30
2023-03-27T06:37:41.518Z,6.40
2023-03-27T06:40:20.194Z,6.40
2023-03-27T06:42:53.453Z,6.50
2023-03-27T06:45:31.496Z,6.70
2023-03-27T06:48:35.118Z,6.80
2023-03-27T06:51:08.022Z,6.30
2023-03-27T06:53:38.063Z,6.00
2023-03-27T06:56:08.031Z,5.90
2023-03-27T06:58:56.587Z,6.20
2023-03-27T07:01:28.423Z,6.60
2023-03-27T07:04:15.561Z,6.20
2023-03-27T07:06:56.280Z,6.90
2023-03-27T07:09:24.645Z,5.80
2023-03-27T07:12:06.228Z,5.70
2023-03-27T07:14:36.573Z,5.90
2023-03-27T07:17:06.973Z,5.80
2023-03-27T07:19:51.633Z,5.90
2023-03-27T07:22:24.501Z,6.10
2023-03-27T07:24:52.856Z,6.20
2023-03-27T07:27:22.696Z,6.50
2023-03-27T07:29:51.492Z,6.90
2023-03-27T07:32:36.096Z,6.70
2023-03-27T07:35:06.956Z,7.70
2023-03-27T07:37:59.233Z,6.70
2023-03-27T07:40:44.553Z,6.70
2023-03-27T07:43:27.940Z,6.90
2023-03-27T07:45:57.806Z,6.90
2023-03-27T07:48:27.942Z,7.00
2023-03-27T07:51:10.923Z,7.30
2023-03-27T07:53:43.785Z,7.60
2023-03-27T07:56:18.479Z,7.50
2023-03-27T07:58:49.041Z,7.40
2023-03-27T08:01:22.108Z,7.30
2023-03-27T08:03:52.311Z,7.40
2023-03-27T08:06:22.370Z,7.50
2023-03-27T08:08:52.419Z,7.60
2023-03-27T08:11:30.036Z,7.90
2023-03-27T08:13:59.842Z,7.50
2023-03-27T08:16:30.182Z,7.00
2023-03-27T08:19:03.166Z,7.30
2023-03-27T08:21:33.319Z,6.90
2023-03-27T08:24:05.399Z,7.00
2023-03-27T08:26:36.832Z,6.90
2023-03-27T08:29:09.502Z,7.40
2023-03-27T08:31:39.547Z,6.70
2023-03-27T08:34:08.731Z,6.70
2023-03-27T08:36:46.792Z,6.70
2023-03-27T08:39:17.745Z,7.30
2023-03-27T08:41:56.280Z,7.40
2023-03-27T08:44:36.266Z,7.60
2023-03-27T08:47:15.943Z,7.60
2023-03-27T08:50:03.543Z,7.50
2023-03-27T08:52:37.445Z,7.20
2023-03-27T08:55:19.214Z,7.10
2023-03-27T08:57:57.368Z,7.20
2023-03-27T09:00:32.451Z,7.50
2023-03-27T09:03:26.050Z,7.30
2023-03-27T09:05:59.663Z,6.50
2023-03-27T09:08:43.812Z,6.60
2023-03-27T09:11:25.072Z,6.30
2023-03-27T09:16:32.615Z,6.20
2023-03-27T09:19:11.412Z,6.50
2023-03-27T09:21:44.646Z,6.40
2023-03-27T09:24:27.325Z,7.00
2023-03-27T09:27:20.297Z,7.00
2023-03-27T09:30:06.255Z,6.40
2023-03-27T09:33:00.170Z,6.30
2023-03-27T09:35:28.703Z,6.90
2023-03-27T09:38:01.184Z,6.70
2023-03-27T09:40:44.415Z,6.90
2023-03-27T09:43:20.542Z,6.50
2023-03-27T09:45:54.003Z,7.00
2023-03-27T09:48:29.775Z,6.60
2023-03-27T09:50:58.793Z,6.60
2023-03-27T09:53:33.399Z,7.00
2023-03-27T09:56:16.474Z,6.30
2023-03-27T09:58:57.238Z,7.40
2023-03-27T10:01:34.522Z,7.40
2023-03-27T10:04:24.648Z,6.30
2023-03-27T10:07:05.545Z,6.40
2023-03-27T10:10:09.592Z,5.90
2023-03-27T10:13:03.486Z,6.10
2023-03-27T10:15:47.895Z,7.30
2023-03-27T10:18:32.187Z,6.10
2023-03-27T10:21:26.245Z,5.80
2023-03-27T10:24:02.266Z,6.70
2023-03-27T10:26:54.430Z,6.80
2023-03-27T10:29:27.475Z,6.40
2023-03-27T10:31:58.795Z,6.20
2023-03-27T10:34:37.789Z,6.10
2023-03-27T10:37:50.494Z,6.10
2023-03-27T10:40:34.152Z,6.20
2023-03-27T10:43:13.303Z,6.10
2023-03-27T10:45:50.424Z,6.40
2023-03-27T10:48:39.288Z,5.90
2023-03-27T10:51:23.703Z,6.30
2023-03-27T10:54:04.225Z,5.90
2023-03-27T10:56:49.971Z,6.10
2023-03-27T10:59:38.631Z,6.30
2023-03-27T11:02:19.688Z,6.40
2023-03-27T11:04:56.822Z,6.50
2023-03-27T11:07:33.926Z,6.40
2023-03-27T11:10:13.203Z,5.90
2023-03-27T11:12:44.829Z,6.30
2023-03-27T11:15:16.677Z,6.40
2023-03-27T11:17:51.177Z,5.80
2023-03-27T11:20:30.043Z,5.50
2023-03-27T11:23:20.168Z,5.60
2023-03-27T11:26:12.714Z,6.10
2023-03-27T11:28:47.172Z,6.00
2023-03-27T11:31:23.387Z,6.30
2023-03-27T11:33:57.206Z,6.40
2023-03-27T11:36:37.863Z,6.40
2023-03-27T11:39:27.295Z,6.20
2023-03-27T11:41:59.031Z,6.70
2023-03-27T11:44:30.441Z,5.90
2023-03-27T11:47:32.782Z,6.20
2023-03-27T11:50:19.633Z,6.00
2023-03-27T11:53:00.971Z,6.10
2023-03-27T11:56:09.753Z,6.10
2023-03-27T11:58:53.866Z,6.40
2023-03-27T12:01:28.948Z,6.70
2023-03-27T12:04:18.044Z,6.70
2023-03-27T12:07:18.764Z,6.20
2023-03-27T12:10:05.003Z,6.20
2023-03-27T12:13:22.697Z,6.00
2023-03-27T12:16:17.676Z,6.00
2023-03-27T12:19:17.284Z,6.20
2023-03-27T12:25:14.342Z,7.00
2023-03-27T12:28:22.712Z,7.00
2023-03-27T12:31:27.293Z,7.10
2023-03-27T12:34:02.367Z,7.10
2023-03-27T12:36:37.529Z,6.80
2023-03-27T12:39:26.102Z,6.70
2023-03-27T12:41:59.129Z,7.10
2023-03-27T12:44:33.562Z,7.60
2023-03-27T12:47:09.662Z,7.40
2023-03-27T12:49:48.428Z,7.40
2023-03-27T12:52:27.501Z,7.00
2023-03-27T12:55:32.960Z,7.00
2023-03-27T12:58:05.654Z,6.90
2023-03-27T13:01:01.718Z,6.80
2023-03-27T13:04:17.642Z,7.10
2023-03-27T13:06:56.018Z,6.90
2023-03-27T13:10:03.912Z,7.10
2023-03-27T13:12:58.753Z,7.00
2023-03-27T13:15:57.774Z,6.70
2023-03-27T13:18:52.281Z,7.50
2023-03-27T13:21:30.168Z,7.00
2023-03-27T13:24:19.642Z,6.70
2023-03-27T13:27:03.798Z,7.20
2023-03-27T13:29:37.322Z,6.80
2023-03-27T13:32:37.311Z,6.70
2023-03-27T13:35:34.286Z,7.10
2023-03-27T13:38:03.800Z,6.80
2023-03-27T13:40:54.231Z,6.30
2023-03-27T13:43:33.787Z,6.30
2023-03-27T13:46:29.277Z,6.50
2023-03-27T13:49:28.097Z,6.60
2023-03-27T13:52:32.618Z,6.40
2023-03-27T13:55:51.261Z,6.30
2023-03-27T13:58:57.098Z,6.40
2023-03-27T14:01:40.447Z,6.50
2023-03-27T14:04:29.682Z,6.50
2023-03-27T14:07:42.482Z,6.40
2023-03-27T14:10:24.068Z,6.00
2023-03-27T14:13:19.234Z,6.10
2023-03-27T14:16:17.201Z,6.10
2023-03-27T14:19:12.296Z,6.10
2023-03-27T14:21:53.592Z,5.90
2023-03-27T14:24:32.797Z,5.80
2023-03-27T14:27:13.682Z,6.00
2023-03-27T14:29:42.422Z,5.70
2023-03-27T14:32:17.452Z,6.00
2023-03-27T14:34:54.719Z,5.90
2023-03-27T14:37:44.956Z,6.10
2023-03-27T14:40:31.665Z,6.00
2023-03-27T14:43:06.277Z,6.10
2023-03-27T14:45:39.416Z,5.60
2023-03-27T14:50:47.479Z,4.90
2023-03-27T14:53:22.040Z,4.90
2023-03-27T14:56:11.744Z,4.90
2023-03-27T14:59:01.933Z,4.80
2023-03-27T15:01:42.462Z,4.80
2023-03-27T15:09:19.255Z,4.70
2023-03-27T15:11:59.077Z,4.70
2023-03-27T15:14:32.577Z,4.50
2023-03-27T15:17:07.037Z,4.60
2023-03-27T15:19:45.661Z,4.70
2023-03-27T15:22:23.460Z,4.60
2023-03-27T15:24:58.055Z,4.40
2023-03-27T15:27:29.753Z,4.40
2023-03-27T15:30:02.926Z,4.50
2023-03-27T15:32:42.338Z,4.20
2023-03-27T15:35:18.147Z,4.20
2023-03-27T15:37:46.875Z,4.30
2023-03-27T15:40:36.884Z,4.10
2023-03-27T15:43:19.781Z,3.90
2023-03-27T15:46:01.845Z,3.90
2023-03-27T15:48:35.187Z,3.90
2023-03-27T15:51:06.275Z,3.80
2023-03-27T15:53:37.005Z,3.80
2023-03-27T15:56:08.856Z,3.80
2023-03-27T15:58:47.284Z,3.70
2023-03-27T16:01:20.051Z,4.00
2023-03-27T16:03:50.771Z,3.60
2023-03-27T16:06:30.914Z,3.70
2023-03-27T16:08:59.687Z,3.70
2023-03-27T16:11:39.622Z,3.60
2023-03-27T16:14:22.123Z,3.70
2023-03-27T16:16:54.982Z,3.50
2023-03-27T16:19:23.312Z,3.60
2023-03-27T16:21:57.885Z,3.40
2023-03-27T16:24:26.125Z,3.50
2023-03-27T16:26:55.696Z,3.50
2023-03-27T16:29:24.208Z,3.60
2023-03-27T16:31:52.427Z,3.50
2023-03-27T16:34:23.323Z,3.40
2023-03-27T16:36:52.436Z,3.60
2023-03-27T16:39:20.688Z,3.50
2023-03-27T16:41:49.252Z,3.50
2023-03-27T16:44:19.045Z,3.60
2023-03-27T16:46:47.598Z,3.50
2023-03-27T16:49:15.810Z,3.50
2023-03-27T16:51:44.129Z,3.60
2023-03-27T16:54:12.259Z,3.50
2023-03-27T16:59:09.021Z,3.50
2023-03-27T17:01:38.730Z,3.50
2023-03-27T17:04:07.103Z,3.50
2023-03-27T17:06:36.323Z,3.50
2023-03-27T17:09:04.587Z,3.50
2023-03-27T17:11:33.009Z,3.50
2023-03-27T17:14:01.224Z,3.50
2023-03-27T17:16:29.493Z,3.50
2023-03-27T17:18:59.280Z,3.40
2023-03-27T17:21:28.505Z,3.40
2023-03-27T17:23:58.292Z,3.40
2023-03-27T17:26:28.220Z,3.30
2023-03-27T17:28:56.836Z,2.90
2023-03-27T17:31:25.498Z,3.10
2023-03-27T17:33:54.028Z,2.90
2023-03-27T17:36:39.752Z,3.00
2023-03-27T17:39:11.358Z,2.90
2023-03-27T17:41:39.712Z,2.90
2023-03-27T17:44:08.392Z,2.90
2023-03-27T17:46:36.849Z,3.00
2023-03-27T17:49:05.312Z,2.90
2023-03-27T17:51:35.472Z,2.90
2023-03-27T17:54:04.445Z,3.00
2023-03-27T17:56:32.798Z,2.90
2023-03-27T17:59:02.427Z,2.90
2023-03-27T18:01:30.583Z,3.00
2023-03-27T18:04:00.676Z,3.00
2023-03-27T18:06:29.044Z,3.10
2023-03-27T18:08:58.808Z,2.90
2023-03-27T18:11:27.016Z,3.00
2023-03-27T18:13:55.221Z,3.00
2023-03-27T18:16:23.629Z,2.80
2023-03-27T18:18:54.882Z,2.80
2023-03-27T18:21:23.311Z,2.80
2023-03-27T18:23:53.613Z,2.90
2023-03-27T18:26:23.733Z,2.80
2023-03-27T18:28:52.459Z,2.70
2023-03-27T18:31:20.905Z,2.60
2023-03-27T18:33:49.118Z,2.30
2023-03-27T18:36:17.386Z,2.60
2023-03-27T18:38:47.741Z,2.70
2023-03-27T18:41:17.954Z,2.50
2023-03-27T18:43:47.501Z,2.50
2023-03-27T18:46:17.680Z,2.50
2023-03-27T18:48:48.625Z,2.50
2023-03-27T18:51:18.596Z,2.30
2023-03-27T18:53:47.277Z,2.30
2023-03-27T18:56:16.816Z,2.20
2023-03-27T18:58:45.076Z,1.80
2023-03-27T19:01:14.859Z,2.20
2023-03-27T19:06:13.690Z,2.00
2023-03-27T19:08:42.994Z,2.30
2023-03-27T19:11:11.677Z,1.90
2023-03-27T19:16:46.988Z,2.10
2023-03-27T19:19:37.894Z,1.60
2023-03-27T19:22:22.343Z,1.50
2023-03-27T19:24:57.318Z,2.00
2023-03-27T19:27:27.576Z,1.80
2023-03-27T19:30:09.426Z,1.70
2023-03-27T19:32:39.185Z,1.70
2023-03-27T19:35:09.030Z,1.70
2023-03-27T19:37:37.718Z,1.60
2023-03-27T19:40:06.993Z,1.70
2023-03-27T19:42:36.349Z,1.50
2023-03-27T19:45:04.972Z,1.50
2023-03-27T19:47:33.299Z,1.30
2023-03-27T19:50:03.128Z,1.50
2023-03-27T19:52:57.285Z,1.40
2023-03-27T19:55:29.738Z,1.40
2023-03-27T19:57:57.928Z,1.40
2023-03-27T20:00:26.201Z,1.30
2023-03-27T20:02:54.482Z,1.30
2023-03-27T20:05:24.114Z,1.20
2023-03-27T20:07:52.300Z,1.10
2023-03-27T20:10:22.089Z,1.10
2023-03-27T20:12:50.441Z,1.00
2023-03-27T20:15:18.661Z,1.00
2023-03-27T20:17:46.968Z,1.00
2023-03-27T20:20:15.436Z,0.90
2023-03-27T20:22:56.913Z,0.80
2023-03-27T20:25:28.112Z,1.00
2023-03-27T20:27:56.403Z,0.90
2023-03-27T20:30:24.880Z,0.80
2023-03-27T20:32:54.140Z,0.80
2023-03-27T20:37:57.980Z,0.70
2023-03-27T20:40:32.855Z,0.60
2023-03-27T20:43:06.048Z,0.60
2023-03-27T20:45:34.265Z,0.60
2023-03-27T20:48:04.303Z,0.60
2023-03-27T20:50:35.548Z,0.50
2023-03-27T20:53:05.458Z,0.40
2023-03-27T20:55:37.594Z,0.40
2023-03-27T20:58:13.991Z,0.40
2023-03-27T21:00:43.791Z,0.30
2023-03-27T21:03:12.391Z,0.30
2023-03-27T21:05:41.399Z,0.30
2023-03-27T21:08:11.198Z,0.30
2023-03-27T21:10:39.733Z,0.20
2023-03-27T21:13:08.568Z,0.20
2023-03-27T21:15:36.874Z,0.10
2023-03-27T21:18:05.385Z,0.10
2023-03-27T21:20:35.387Z,0.10
2023-03-27T21:23:03.793Z,-0.20
2023-03-27T21:25:35.572Z,0.00
2023-03-27T21:28:07.108Z,0.10
2023-03-27T21:30:46.928Z,0.10
2023-03-27T21:33:18.124Z,0.10
2023-03-27T21:35:47.664Z,-0.10
2023-03-27T21:38:16.991Z,-0.10
2023-03-27T21:40:47.588Z,-0.10
2023-03-27T21:43:16.262Z,-0.10
2023-03-27T21:45:44.474Z,-0.20
2023-03-27T21:48:12.906Z,-0.20
2023-03-27T21:50:41.031Z,0.50
2023-03-27T21:53:09.340Z,-0.20
2023-03-27T21:55:38.155Z,-0.20
2023-03-27T21:58:07.750Z,-0.20
2023-03-27T22:00:36.156Z,-0.30
2023-03-27T22:03:04.466Z,-0.30
2023-03-27T22:05:36.206Z,-0.30
2023-03-27T22:08:04.612Z,-0.40
2023-03-27T22:10:34.893Z,-0.30
2023-03-27T22:13:03.449Z,-0.30
2023-03-27T22:15:33.037Z,-0.10
2023-03-27T22:18:01.461Z,-0.30
2023-03-27T22:20:29.918Z,-0.40
2023-03-27T22:22:58.208Z,-0.30
2023-03-27T22:25:26.528Z,-0.40
2023-03-27T22:27:54.824Z,-0.40
2023-03-27T22:30:23.100Z,-0.40
2023-03-27T22:32:52.956Z,-0.50
2023-03-27T22:35:21.251Z,-0.50
2023-03-27T22:37:49.525Z,-0.50
2023-03-27T22:40:17.875Z,-0.60
2023-03-27T22:42:46.144Z,-0.60
2023-03-27T22:45:14.298Z,-0.60
2023-03-27T22:47:42.653Z,-0.70
2023-03-27T22:50:12.436Z,-0.70
2023-03-27T22:52:40.652Z,-0.80
2023-03-27T22:55:10.120Z,-0.70
2023-03-27T22:57:38.698Z,-0.80
2023-03-27T23:00:08.369Z,-0.90
2023-03-27T23:02:37.139Z,-0.90
2023-03-27T23:05:05.691Z,-1.00
2023-03-27T23:07:36.022Z,-1.00
2023-03-27T23:10:04.486Z,-0.90
2023-03-27T23:12:32.715Z,-0.90
2023-03-27T23:15:00.927Z,-1.10
2023-03-27T23:17:29.134Z,-0.80
2023-03-27T23:19:57.338Z,-1.00
2023-03-27T23:22:25.822Z,-1.40
2023-03-27T23:24:55.575Z,-1.40
2023-03-27T23:27:23.735Z,-1.30
2023-03-27T23:42:15.972Z,-1.30
2023-03-27T23:44:44.285Z,-1.30
2023-03-27T23:47:12.473Z,-1.50
2023-03-27T23:52:10.872Z,-1.50
2023-03-27T23:54:39.155Z,-1.60
2023-03-27T23:57:07.455Z,-1.60
2023-03-27T23:59:38.078Z,-1.70
